sensor_id;sensor_type;location;lat;lon;timestamp;P1;durP1;ratioP1;P2;durP2;ratioP2
30233;SDS011;17046;52.074;4.748;2022-12-18T00:01:34;121.93;;;34.93;;
30233;SDS011;17046;52.074;4.748;2022-12-18T00:04:02;136.37;;;38.20;;
30233;SDS011;17046;52.074;4.748;2022-12-18T00:06:29;134.20;;;37.23;;
30233;SDS011;17046;52.074;4.748;2022-12-18T00:08:57;141.33;;;38.97;;
30233;SDS011;17046;52.074;4.748;2022-12-18T00:11:24;136.17;;;40.67;;
30233;SDS011;17046;52.074;4.748;2022-12-18T00:13:53;129.47;;;37.83;;
30233;SDS011;17046;52.074;4.748;2022-12-18T00:16:21;133.13;;;37.73;;
30233;SDS011;17046;52.074;4.748;2022-12-18T00:18:49;121.23;;;36.67;;
30233;SDS011;17046;52.074;4.748;2022-12-18T00:21:15;136.03;;;37.43;;
30233;SDS011;17046;52.074;4.748;2022-12-18T00:23:42;120.63;;;35.60;;
30233;SDS011;17046;52.074;4.748;2022-12-18T00:26:25;139.77;;;38.27;;
30233;SDS011;17046;52.074;4.748;2022-12-18T00:28:53;141.17;;;36.90;;
30233;SDS011;17046;52.074;4.748;2022-12-18T00:31:20;137.53;;;37.63;;
30233;SDS011;17046;52.074;4.748;2022-12-18T00:33:47;133.37;;;37.13;;
30233;SDS011;17046;52.074;4.748;2022-12-18T00:36:14;130.70;;;37.03;;
30233;SDS011;17046;52.074;4.748;2022-12-18T00:38:43;156.10;;;35.93;;
30233;SDS011;17046;52.074;4.748;2022-12-18T00:41:09;131.27;;;34.60;;
30233;SDS011;17046;52.074;4.748;2022-12-18T00:43:36;128.90;;;35.37;;
30233;SDS011;17046;52.074;4.748;2022-12-18T00:46:03;123.57;;;35.73;;
30233;SDS011;17046;52.074;4.748;2022-12-18T00:48:28;131.40;;;35.87;;
30233;SDS011;17046;52.074;4.748;2022-12-18T00:50:54;121.30;;;31.40;;
30233;SDS011;17046;52.074;4.748;2022-12-18T00:53:20;134.80;;;34.23;;
30233;SDS011;17046;52.074;4.748;2022-12-18T00:55:45;131.90;;;33.40;;
30233;SDS011;17046;52.074;4.748;2022-12-18T00:58:12;133.07;;;35.03;;
30233;SDS011;17046;52.074;4.748;2022-12-18T01:00:39;137.77;;;34.47;;
30233;SDS011;17046;52.074;4.748;2022-12-18T01:03:05;124.50;;;35.17;;
30233;SDS011;17046;52.074;4.748;2022-12-18T01:05:30;122.80;;;34.30;;
30233;SDS011;17046;52.074;4.748;2022-12-18T01:07:57;122.77;;;36.50;;
30233;SDS011;17046;52.074;4.748;2022-12-18T01:10:23;124.40;;;35.93;;
30233;SDS011;17046;52.074;4.748;2022-12-18T01:12:49;112.53;;;34.60;;
30233;SDS011;17046;52.074;4.748;2022-12-18T01:15:15;145.33;;;36.03;;
30233;SDS011;17046;52.074;4.748;2022-12-18T01:17:41;130.73;;;34.23;;
30233;SDS011;17046;52.074;4.748;2022-12-18T01:20:07;129.53;;;33.83;;
30233;SDS011;17046;52.074;4.748;2022-12-18T01:22:34;121.77;;;33.67;;
30233;SDS011;17046;52.074;4.748;2022-12-18T01:25:00;120.10;;;31.43;;
30233;SDS011;17046;52.074;4.748;2022-12-18T01:27:26;120.17;;;33.63;;
30233;SDS011;17046;52.074;4.748;2022-12-18T01:29:51;103.67;;;32.17;;
30233;SDS011;17046;52.074;4.748;2022-12-18T01:32:17;127.83;;;35.30;;
30233;SDS011;17046;52.074;4.748;2022-12-18T01:34:43;116.10;;;33.27;;
30233;SDS011;17046;52.074;4.748;2022-12-18T01:37:09;110.23;;;33.63;;
30233;SDS011;17046;52.074;4.748;2022-12-18T01:39:35;109.90;;;33.33;;
30233;SDS011;17046;52.074;4.748;2022-12-18T01:42:11;130.03;;;34.87;;
30233;SDS011;17046;52.074;4.748;2022-12-18T01:47:29;110.63;;;35.40;;
30233;SDS011;17046;52.074;4.748;2022-12-18T01:49:56;115.50;;;33.03;;
30233;SDS011;17046;52.074;4.748;2022-12-18T01:52:23;114.80;;;33.30;;
30233;SDS011;17046;52.074;4.748;2022-12-18T01:54:53;110.60;;;34.23;;
30233;SDS011;17046;52.074;4.748;2022-12-18T01:57:19;125.93;;;33.77;;
30233;SDS011;17046;52.074;4.748;2022-12-18T01:59:45;105.10;;;34.17;;
30233;SDS011;17046;52.074;4.748;2022-12-18T02:02:16;113.83;;;31.60;;
30233;SDS011;17046;52.074;4.748;2022-12-18T02:04:42;103.17;;;30.63;;
30233;SDS011;17046;52.074;4.748;2022-12-18T02:07:24;106.87;;;31.60;;
30233;SDS011;17046;52.074;4.748;2022-12-18T02:10:10;95.60;;;30.83;;
30233;SDS011;17046;52.074;4.748;2022-12-18T02:13:02;101.23;;;29.67;;
30233;SDS011;17046;52.074;4.748;2022-12-18T02:15:54;100.53;;;31.00;;
30233;SDS011;17046;52.074;4.748;2022-12-18T02:18:44;88.87;;;29.37;;
30233;SDS011;17046;52.074;4.748;2022-12-18T02:23:47;87.63;;;28.83;;
30233;SDS011;17046;52.074;4.748;2022-12-18T02:26:37;106.37;;;29.53;;
30233;SDS011;17046;52.074;4.748;2022-12-18T02:29:10;96.27;;;29.57;;
30233;SDS011;17046;52.074;4.748;2022-12-18T02:31:41;90.97;;;31.73;;
30233;SDS011;17046;52.074;4.748;2022-12-18T02:34:10;85.70;;;28.73;;
30233;SDS011;17046;52.074;4.748;2022-12-18T02:36:38;102.23;;;31.00;;
30233;SDS011;17046;52.074;4.748;2022-12-18T02:39:05;99.43;;;29.70;;
30233;SDS011;17046;52.074;4.748;2022-12-18T02:41:34;107.50;;;29.93;;
30233;SDS011;17046;52.074;4.748;2022-12-18T02:44:06;83.10;;;28.33;;
30233;SDS011;17046;52.074;4.748;2022-12-18T02:46:35;82.90;;;28.37;;
30233;SDS011;17046;52.074;4.748;2022-12-18T02:54:59;96.70;;;29.37;;
30233;SDS011;17046;52.074;4.748;2022-12-18T02:57:52;83.70;;;28.17;;
30233;SDS011;17046;52.074;4.748;2022-12-18T03:00:32;80.73;;;26.47;;
30233;SDS011;17046;52.074;4.748;2022-12-18T03:03:05;95.43;;;28.07;;
30233;SDS011;17046;52.074;4.748;2022-12-18T03:05:41;74.63;;;26.50;;
30233;SDS011;17046;52.074;4.748;2022-12-18T03:08:22;107.07;;;29.53;;
30233;SDS011;17046;52.074;4.748;2022-12-18T03:10:54;83.83;;;27.77;;
30233;SDS011;17046;52.074;4.748;2022-12-18T03:13:27;90.03;;;26.10;;
30233;SDS011;17046;52.074;4.748;2022-12-18T03:15:58;93.40;;;28.70;;
30233;SDS011;17046;52.074;4.748;2022-12-18T03:18:27;98.73;;;26.90;;
30233;SDS011;17046;52.074;4.748;2022-12-18T03:21:03;78.47;;;25.87;;
30233;SDS011;17046;52.074;4.748;2022-12-18T03:23:32;75.10;;;26.33;;
30233;SDS011;17046;52.074;4.748;2022-12-18T03:26:07;105.70;;;27.83;;
30233;SDS011;17046;52.074;4.748;2022-12-18T03:28:46;84.30;;;27.23;;
30233;SDS011;17046;52.074;4.748;2022-12-18T03:31:18;92.93;;;27.77;;
30233;SDS011;17046;52.074;4.748;2022-12-18T03:33:50;74.63;;;26.57;;
30233;SDS011;17046;52.074;4.748;2022-12-18T03:36:19;82.30;;;29.77;;
30233;SDS011;17046;52.074;4.748;2022-12-18T03:38:44;95.40;;;30.27;;
30233;SDS011;17046;52.074;4.748;2022-12-18T03:44:03;87.23;;;28.40;;
30233;SDS011;17046;52.074;4.748;2022-12-18T03:52:28;107.93;;;32.43;;
30233;SDS011;17046;52.074;4.748;2022-12-18T03:55:00;97.77;;;30.57;;
30233;SDS011;17046;52.074;4.748;2022-12-18T03:57:28;94.67;;;30.27;;
30233;SDS011;17046;52.074;4.748;2022-12-18T03:59:56;95.33;;;31.73;;
30233;SDS011;17046;52.074;4.748;2022-12-18T04:02:25;103.33;;;31.33;;
30233;SDS011;17046;52.074;4.748;2022-12-18T04:04:52;96.87;;;31.40;;
30233;SDS011;17046;52.074;4.748;2022-12-18T04:07:21;97.77;;;32.10;;
30233;SDS011;17046;52.074;4.748;2022-12-18T04:09:48;86.53;;;30.70;;
30233;SDS011;17046;52.074;4.748;2022-12-18T04:12:16;92.00;;;31.70;;
30233;SDS011;17046;52.074;4.748;2022-12-18T04:14:41;99.87;;;30.70;;
30233;SDS011;17046;52.074;4.748;2022-12-18T04:17:07;90.50;;;31.17;;
30233;SDS011;17046;52.074;4.748;2022-12-18T04:19:32;91.80;;;31.20;;
30233;SDS011;17046;52.074;4.748;2022-12-18T04:21:58;99.53;;;32.27;;
30233;SDS011;17046;52.074;4.748;2022-12-18T04:24:23;90.63;;;30.80;;
30233;SDS011;17046;52.074;4.748;2022-12-18T04:26:49;96.83;;;31.47;;
30233;SDS011;17046;52.074;4.748;2022-12-18T04:29:14;92.87;;;30.47;;
30233;SDS011;17046;52.074;4.748;2022-12-18T04:31:40;87.07;;;29.50;;
30233;SDS011;17046;52.074;4.748;2022-12-18T04:34:06;96.10;;;31.00;;
30233;SDS011;17046;52.074;4.748;2022-12-18T04:36:31;97.13;;;31.87;;
30233;SDS011;17046;52.074;4.748;2022-12-18T04:38:57;96.27;;;30.80;;
30233;SDS011;17046;52.074;4.748;2022-12-18T04:41:22;94.40;;;30.00;;
30233;SDS011;17046;52.074;4.748;2022-12-18T04:43:48;90.30;;;30.53;;
30233;SDS011;17046;52.074;4.748;2022-12-18T04:46:13;90.83;;;31.87;;
30233;SDS011;17046;52.074;4.748;2022-12-18T04:48:39;87.67;;;29.53;;
30233;SDS011;17046;52.074;4.748;2022-12-18T04:51:05;95.23;;;29.83;;
30233;SDS011;17046;52.074;4.748;2022-12-18T04:53:31;101.03;;;32.10;;
30233;SDS011;17046;52.074;4.748;2022-12-18T04:56:07;87.87;;;30.23;;
30233;SDS011;17046;52.074;4.748;2022-12-18T04:58:38;82.63;;;27.70;;
30233;SDS011;17046;52.074;4.748;2022-12-18T05:01:04;81.67;;;29.87;;
30233;SDS011;17046;52.074;4.748;2022-12-18T05:03:32;77.93;;;28.87;;
30233;SDS011;17046;52.074;4.748;2022-12-18T05:05:58;75.60;;;27.63;;
30233;SDS011;17046;52.074;4.748;2022-12-18T05:08:24;73.77;;;26.13;;
30233;SDS011;17046;52.074;4.748;2022-12-18T05:10:57;79.17;;;26.73;;
30233;SDS011;17046;52.074;4.748;2022-12-18T05:13:27;75.43;;;27.87;;
30233;SDS011;17046;52.074;4.748;2022-12-18T05:15:53;73.27;;;26.50;;
30233;SDS011;17046;52.074;4.748;2022-12-18T05:18:19;76.90;;;28.27;;
30233;SDS011;17046;52.074;4.748;2022-12-18T05:20:45;72.40;;;26.87;;
30233;SDS011;17046;52.074;4.748;2022-12-18T05:23:11;66.63;;;25.87;;
30233;SDS011;17046;52.074;4.748;2022-12-18T05:25:36;69.33;;;25.33;;
30233;SDS011;17046;52.074;4.748;2022-12-18T05:28:02;67.47;;;25.93;;
30233;SDS011;17046;52.074;4.748;2022-12-18T05:30:27;64.33;;;24.97;;
30233;SDS011;17046;52.074;4.748;2022-12-18T05:32:53;75.77;;;25.77;;
30233;SDS011;17046;52.074;4.748;2022-12-18T05:35:19;64.53;;;25.80;;
30233;SDS011;17046;52.074;4.748;2022-12-18T05:37:44;70.83;;;26.30;;
30233;SDS011;17046;52.074;4.748;2022-12-18T05:40:10;69.70;;;26.90;;
30233;SDS011;17046;52.074;4.748;2022-12-18T05:42:36;67.57;;;26.43;;
30233;SDS011;17046;52.074;4.748;2022-12-18T05:45:02;70.30;;;27.13;;
30233;SDS011;17046;52.074;4.748;2022-12-18T05:47:28;84.50;;;28.40;;
30233;SDS011;17046;52.074;4.748;2022-12-18T05:49:53;73.77;;;27.70;;
30233;SDS011;17046;52.074;4.748;2022-12-18T05:52:20;69.60;;;27.30;;
30233;SDS011;17046;52.074;4.748;2022-12-18T05:54:45;74.50;;;26.87;;
30233;SDS011;17046;52.074;4.748;2022-12-18T05:57:11;72.53;;;26.37;;
30233;SDS011;17046;52.074;4.748;2022-12-18T05:59:36;72.73;;;25.80;;
30233;SDS011;17046;52.074;4.748;2022-12-18T06:02:02;66.27;;;26.37;;
30233;SDS011;17046;52.074;4.748;2022-12-18T06:04:31;65.23;;;25.77;;
30233;SDS011;17046;52.074;4.748;2022-12-18T06:06:57;63.00;;;25.73;;
30233;SDS011;17046;52.074;4.748;2022-12-18T06:09:23;61.40;;;25.47;;
30233;SDS011;17046;52.074;4.748;2022-12-18T06:11:49;60.10;;;24.87;;
30233;SDS011;17046;52.074;4.748;2022-12-18T06:14:16;67.33;;;25.80;;
30233;SDS011;17046;52.074;4.748;2022-12-18T06:16:42;64.80;;;25.17;;
30233;SDS011;17046;52.074;4.748;2022-12-18T06:19:12;62.53;;;24.40;;
30233;SDS011;17046;52.074;4.748;2022-12-18T06:21:40;62.07;;;25.63;;
30233;SDS011;17046;52.074;4.748;2022-12-18T06:24:06;67.83;;;26.27;;
30233;SDS011;17046;52.074;4.748;2022-12-18T06:26:32;61.23;;;24.97;;
30233;SDS011;17046;52.074;4.748;2022-12-18T06:28:58;57.07;;;24.10;;
30233;SDS011;17046;52.074;4.748;2022-12-18T06:31:24;63.03;;;24.97;;
30233;SDS011;17046;52.074;4.748;2022-12-18T06:33:50;62.57;;;25.97;;
30233;SDS011;17046;52.074;4.748;2022-12-18T06:36:16;57.13;;;24.37;;
30233;SDS011;17046;52.074;4.748;2022-12-18T06:38:43;60.23;;;25.23;;
30233;SDS011;17046;52.074;4.748;2022-12-18T06:41:09;58.07;;;25.00;;
30233;SDS011;17046;52.074;4.748;2022-12-18T06:43:37;53.20;;;24.37;;
30233;SDS011;17046;52.074;4.748;2022-12-18T06:46:03;60.17;;;26.10;;
30233;SDS011;17046;52.074;4.748;2022-12-18T06:48:29;57.07;;;25.80;;
30233;SDS011;17046;52.074;4.748;2022-12-18T06:50:55;61.27;;;26.33;;
30233;SDS011;17046;52.074;4.748;2022-12-18T06:53:20;56.93;;;27.53;;
30233;SDS011;17046;52.074;4.748;2022-12-18T06:55:46;57.87;;;26.63;;
30233;SDS011;17046;52.074;4.748;2022-12-18T06:58:12;60.60;;;28.10;;
30233;SDS011;17046;52.074;4.748;2022-12-18T07:00:38;65.37;;;28.87;;
30233;SDS011;17046;52.074;4.748;2022-12-18T07:03:03;64.63;;;28.37;;
30233;SDS011;17046;52.074;4.748;2022-12-18T07:05:29;67.23;;;30.20;;
30233;SDS011;17046;52.074;4.748;2022-12-18T07:07:55;59.10;;;28.13;;
30233;SDS011;17046;52.074;4.748;2022-12-18T07:10:20;60.87;;;28.07;;
30233;SDS011;17046;52.074;4.748;2022-12-18T07:12:46;60.17;;;28.47;;
30233;SDS011;17046;52.074;4.748;2022-12-18T07:15:11;64.03;;;29.80;;
30233;SDS011;17046;52.074;4.748;2022-12-18T07:17:37;67.50;;;29.50;;
30233;SDS011;17046;52.074;4.748;2022-12-18T07:20:02;69.57;;;30.53;;
30233;SDS011;17046;52.074;4.748;2022-12-18T07:22:28;58.97;;;29.50;;
30233;SDS011;17046;52.074;4.748;2022-12-18T07:24:54;60.70;;;27.93;;
30233;SDS011;17046;52.074;4.748;2022-12-18T07:27:20;63.77;;;29.30;;
30233;SDS011;17046;52.074;4.748;2022-12-18T07:29:46;58.87;;;29.33;;
30233;SDS011;17046;52.074;4.748;2022-12-18T07:32:11;60.23;;;28.60;;
30233;SDS011;17046;52.074;4.748;2022-12-18T07:34:37;57.67;;;28.60;;
30233;SDS011;17046;52.074;4.748;2022-12-18T07:37:03;55.00;;;28.00;;
30233;SDS011;17046;52.074;4.748;2022-12-18T07:39:28;58.70;;;27.90;;
30233;SDS011;17046;52.074;4.748;2022-12-18T07:41:54;56.90;;;27.33;;
30233;SDS011;17046;52.074;4.748;2022-12-18T07:44:38;54.13;;;26.30;;
30233;SDS011;17046;52.074;4.748;2022-12-18T07:47:04;63.10;;;28.37;;
30233;SDS011;17046;52.074;4.748;2022-12-18T07:49:30;60.30;;;28.03;;
30233;SDS011;17046;52.074;4.748;2022-12-18T07:51:55;61.27;;;26.73;;
30233;SDS011;17046;52.074;4.748;2022-12-18T07:54:22;53.97;;;25.97;;
30233;SDS011;17046;52.074;4.748;2022-12-18T07:56:48;51.93;;;25.23;;
30233;SDS011;17046;52.074;4.748;2022-12-18T07:59:14;54.50;;;25.23;;
30233;SDS011;17046;52.074;4.748;2022-12-18T08:01:39;55.17;;;24.50;;
30233;SDS011;17046;52.074;4.748;2022-12-18T08:04:05;50.07;;;23.97;;
30233;SDS011;17046;52.074;4.748;2022-12-18T08:06:31;53.17;;;24.73;;
30233;SDS011;17046;52.074;4.748;2022-12-18T08:08:56;61.67;;;30.53;;
30233;SDS011;17046;52.074;4.748;2022-12-18T08:11:23;53.37;;;25.67;;
30233;SDS011;17046;52.074;4.748;2022-12-18T08:13:50;47.93;;;23.20;;
30233;SDS011;17046;52.074;4.748;2022-12-18T08:16:16;49.63;;;25.03;;
30233;SDS011;17046;52.074;4.748;2022-12-18T08:18:42;49.43;;;23.03;;
30233;SDS011;17046;52.074;4.748;2022-12-18T08:21:15;47.73;;;24.33;;
30233;SDS011;17046;52.074;4.748;2022-12-18T08:23:45;47.93;;;22.07;;
30233;SDS011;17046;52.074;4.748;2022-12-18T08:26:11;48.37;;;23.50;;
30233;SDS011;17046;52.074;4.748;2022-12-18T08:28:38;51.60;;;24.50;;
30233;SDS011;17046;52.074;4.748;2022-12-18T08:31:04;50.57;;;24.23;;
30233;SDS011;17046;52.074;4.748;2022-12-18T08:33:29;46.43;;;24.50;;
30233;SDS011;17046;52.074;4.748;2022-12-18T08:35:55;50.80;;;24.47;;
30233;SDS011;17046;52.074;4.748;2022-12-18T08:38:23;53.27;;;25.17;;
30233;SDS011;17046;52.074;4.748;2022-12-18T08:40:48;53.60;;;24.57;;
30233;SDS011;17046;52.074;4.748;2022-12-18T08:43:14;52.17;;;23.87;;
30233;SDS011;17046;52.074;4.748;2022-12-18T08:45:58;44.80;;;22.93;;
30233;SDS011;17046;52.074;4.748;2022-12-18T08:48:23;48.20;;;22.73;;
30233;SDS011;17046;52.074;4.748;2022-12-18T08:50:55;41.70;;;23.40;;
30233;SDS011;17046;52.074;4.748;2022-12-18T08:53:21;46.60;;;22.60;;
30233;SDS011;17046;52.074;4.748;2022-12-18T08:55:47;48.93;;;24.17;;
30233;SDS011;17046;52.074;4.748;2022-12-18T08:58:12;45.97;;;22.53;;
30233;SDS011;17046;52.074;4.748;2022-12-18T09:00:38;46.80;;;23.97;;
30233;SDS011;17046;52.074;4.748;2022-12-18T09:03:03;47.20;;;22.43;;
30233;SDS011;17046;52.074;4.748;2022-12-18T09:05:35;48.87;;;23.27;;
30233;SDS011;17046;52.074;4.748;2022-12-18T09:08:01;40.67;;;21.00;;
30233;SDS011;17046;52.074;4.748;2022-12-18T09:10:26;44.00;;;22.47;;
30233;SDS011;17046;52.074;4.748;2022-12-18T09:12:52;43.87;;;22.07;;
30233;SDS011;17046;52.074;4.748;2022-12-18T09:15:17;43.67;;;21.67;;
30233;SDS011;17046;52.074;4.748;2022-12-18T09:17:43;46.33;;;21.43;;
30233;SDS011;17046;52.074;4.748;2022-12-18T09:20:08;40.93;;;20.60;;
30233;SDS011;17046;52.074;4.748;2022-12-18T09:22:34;43.57;;;21.83;;
30233;SDS011;17046;52.074;4.748;2022-12-18T09:25:00;43.03;;;21.63;;
30233;SDS011;17046;52.074;4.748;2022-12-18T09:27:25;41.07;;;21.23;;
30233;SDS011;17046;52.074;4.748;2022-12-18T09:29:51;40.47;;;20.67;;
30233;SDS011;17046;52.074;4.748;2022-12-18T09:32:16;41.93;;;20.53;;
30233;SDS011;17046;52.074;4.748;2022-12-18T09:34:42;37.50;;;19.70;;
30233;SDS011;17046;52.074;4.748;2022-12-18T09:37:07;37.40;;;20.33;;
30233;SDS011;17046;52.074;4.748;2022-12-18T09:39:33;41.83;;;20.57;;
30233;SDS011;17046;52.074;4.748;2022-12-18T09:41:58;41.17;;;20.03;;
30233;SDS011;17046;52.074;4.748;2022-12-18T09:44:25;40.17;;;19.77;;
30233;SDS011;17046;52.074;4.748;2022-12-18T09:49:52;40.60;;;19.57;;
30233;SDS011;17046;52.074;4.748;2022-12-18T09:52:34;36.13;;;19.73;;
30233;SDS011;17046;52.074;4.748;2022-12-18T09:57:51;40.42;;;22.10;;
30233;SDS011;17046;52.074;4.748;2022-12-18T10:00:21;36.63;;;19.60;;
30233;SDS011;17046;52.074;4.748;2022-12-18T10:02:48;38.87;;;19.83;;
30233;SDS011;17046;52.074;4.748;2022-12-18T10:05:17;38.90;;;20.13;;
30233;SDS011;17046;52.074;4.748;2022-12-18T10:17:23;36.13;;;17.03;;
30233;SDS011;17046;52.074;4.748;2022-12-18T10:20:21;33.70;;;17.83;;
30233;SDS011;17046;52.074;4.748;2022-12-18T10:25:41;36.73;;;18.13;;
30233;SDS011;17046;52.074;4.748;2022-12-18T10:28:20;34.40;;;19.40;;
30233;SDS011;17046;52.074;4.748;2022-12-18T10:30:46;34.30;;;18.57;;
30233;SDS011;17046;52.074;4.748;2022-12-18T10:33:16;36.07;;;18.47;;
30233;SDS011;17046;52.074;4.748;2022-12-18T10:35:47;31.07;;;18.03;;
30233;SDS011;17046;52.074;4.748;2022-12-18T10:43:30;34.03;;;17.57;;
30233;SDS011;17046;52.074;4.748;2022-12-18T10:51:06;32.97;;;17.33;;
30233;SDS011;17046;52.074;4.748;2022-12-18T10:53:33;36.70;;;18.43;;
30233;SDS011;17046;52.074;4.748;2022-12-18T10:56:01;32.53;;;17.17;;
30233;SDS011;17046;52.074;4.748;2022-12-18T11:03:31;30.07;;;17.27;;
30233;SDS011;17046;52.074;4.748;2022-12-18T11:06:06;40.13;;;19.73;;
30233;SDS011;17046;52.074;4.748;2022-12-18T11:08:37;31.73;;;16.77;;
30233;SDS011;17046;52.074;4.748;2022-12-18T11:11:04;30.97;;;16.90;;
30233;SDS011;17046;52.074;4.748;2022-12-18T11:13:50;30.60;;;15.97;;
30233;SDS011;17046;52.074;4.748;2022-12-18T11:16:24;35.13;;;17.57;;
30233;SDS011;17046;52.074;4.748;2022-12-18T11:18:51;28.40;;;16.10;;
30233;SDS011;17046;52.074;4.748;2022-12-18T11:21:16;28.60;;;15.93;;
30233;SDS011;17046;52.074;4.748;2022-12-18T11:23:46;33.10;;;17.50;;
30233;SDS011;17046;52.074;4.748;2022-12-18T11:26:17;34.47;;;17.43;;
30233;SDS011;17046;52.074;4.748;2022-12-18T11:28:49;31.30;;;16.30;;
30233;SDS011;17046;52.074;4.748;2022-12-18T11:31:29;32.40;;;17.57;;
30233;SDS011;17046;52.074;4.748;2022-12-18T11:34:09;30.70;;;17.17;;
30233;SDS011;17046;52.074;4.748;2022-12-18T11:36:39;31.40;;;17.00;;
30233;SDS011;17046;52.074;4.748;2022-12-18T11:39:12;32.73;;;17.07;;
30233;SDS011;17046;52.074;4.748;2022-12-18T11:41:52;30.53;;;16.23;;
30233;SDS011;17046;52.074;4.748;2022-12-18T11:44:42;30.47;;;16.27;;
30233;SDS011;17046;52.074;4.748;2022-12-18T11:47:19;33.73;;;17.07;;
30233;SDS011;17046;52.074;4.748;2022-12-18T11:49:56;32.13;;;16.63;;
30233;SDS011;17046;52.074;4.748;2022-12-18T11:52:38;28.43;;;16.03;;
30233;SDS011;17046;52.074;4.748;2022-12-18T11:55:10;31.80;;;16.90;;
30233;SDS011;17046;52.074;4.748;2022-12-18T12:00:23;31.90;;;15.97;;
30233;SDS011;17046;52.074;4.748;2022-12-18T12:08:26;30.07;;;15.47;;
30233;SDS011;17046;52.074;4.748;2022-12-18T12:13:49;28.03;;;15.80;;
30233;SDS011;17046;52.074;4.748;2022-12-18T12:19:22;28.53;;;15.40;;
30233;SDS011;17046;52.074;4.748;2022-12-18T12:22:07;29.27;;;15.27;;
30233;SDS011;17046;52.074;4.748;2022-12-18T12:24:47;27.40;;;14.97;;
30233;SDS011;17046;52.074;4.748;2022-12-18T12:29:59;27.27;;;14.90;;
30233;SDS011;17046;52.074;4.748;2022-12-18T12:32:37;25.40;;;13.93;;
30233;SDS011;17046;52.074;4.748;2022-12-18T12:38:05;26.87;;;16.60;;
30233;SDS011;17046;52.074;4.748;2022-12-18T12:41:00;28.30;;;15.60;;
30233;SDS011;17046;52.074;4.748;2022-12-18T12:43:38;32.07;;;15.17;;
30233;SDS011;17046;52.074;4.748;2022-12-18T12:46:12;30.80;;;15.00;;
30233;SDS011;17046;52.074;4.748;2022-12-18T12:48:46;27.30;;;15.00;;
30233;SDS011;17046;52.074;4.748;2022-12-18T12:51:28;28.43;;;15.27;;
30233;SDS011;17046;52.074;4.748;2022-12-18T12:53:57;29.77;;;15.40;;
30233;SDS011;17046;52.074;4.748;2022-12-18T12:56:25;28.47;;;15.53;;
30233;SDS011;17046;52.074;4.748;2022-12-18T13:07:38;28.53;;;15.73;;
30233;SDS011;17046;52.074;4.748;2022-12-18T13:12:54;31.00;;;16.07;;
30233;SDS011;17046;52.074;4.748;2022-12-18T13:18:31;29.23;;;16.17;;
30233;SDS011;17046;52.074;4.748;2022-12-18T13:25:58;30.43;;;16.03;;
30233;SDS011;17046;52.074;4.748;2022-12-18T13:31:11;29.20;;;16.07;;
30233;SDS011;17046;52.074;4.748;2022-12-18T13:33:41;31.27;;;16.77;;
30233;SDS011;17046;52.074;4.748;2022-12-18T13:36:15;29.20;;;16.83;;
30233;SDS011;17046;52.074;4.748;2022-12-18T13:41:34;30.93;;;16.53;;
30233;SDS011;17046;52.074;4.748;2022-12-18T13:44:17;32.13;;;17.07;;
30233;SDS011;17046;52.074;4.748;2022-12-18T13:46:50;30.30;;;17.50;;
30233;SDS011;17046;52.074;4.748;2022-12-18T13:49:20;34.87;;;17.30;;
30233;SDS011;17046;52.074;4.748;2022-12-18T13:52:22;36.13;;;17.93;;
30233;SDS011;17046;52.074;4.748;2022-12-18T13:54:54;37.80;;;19.83;;
30233;SDS011;17046;52.074;4.748;2022-12-18T13:57:28;33.00;;;16.83;;
30233;SDS011;17046;52.074;4.748;2022-12-18T14:02:46;39.53;;;18.47;;
30233;SDS011;17046;52.074;4.748;2022-12-18T14:05:31;36.23;;;18.33;;
30233;SDS011;17046;52.074;4.748;2022-12-18T14:08:03;45.60;;;21.60;;
30233;SDS011;17046;52.074;4.748;2022-12-18T14:10:33;40.47;;;19.67;;
30233;SDS011;17046;52.074;4.748;2022-12-18T14:13:02;34.30;;;18.27;;
30233;SDS011;17046;52.074;4.748;2022-12-18T14:15:31;35.37;;;18.03;;
30233;SDS011;17046;52.074;4.748;2022-12-18T14:18:08;35.20;;;18.17;;
30233;SDS011;17046;52.074;4.748;2022-12-18T14:20:45;31.43;;;17.23;;
30233;SDS011;17046;52.074;4.748;2022-12-18T14:23:29;33.87;;;17.30;;
30233;SDS011;17046;52.074;4.748;2022-12-18T14:26:01;30.57;;;16.97;;
30233;SDS011;17046;52.074;4.748;2022-12-18T14:28:28;35.20;;;17.53;;
30233;SDS011;17046;52.074;4.748;2022-12-18T14:30:54;30.20;;;16.57;;
30233;SDS011;17046;52.074;4.748;2022-12-18T14:33:24;36.23;;;17.63;;
30233;SDS011;17046;52.074;4.748;2022-12-18T14:35:56;43.73;;;19.87;;
30233;SDS011;17046;52.074;4.748;2022-12-18T14:38:23;36.93;;;18.23;;
30233;SDS011;17046;52.074;4.748;2022-12-18T14:40:53;33.37;;;18.63;;
30233;SDS011;17046;52.074;4.748;2022-12-18T14:43:40;35.03;;;17.80;;
30233;SDS011;17046;52.074;4.748;2022-12-18T14:49:23;33.93;;;16.47;;
30233;SDS011;17046;52.074;4.748;2022-12-18T14:51:49;30.70;;;17.53;;
30233;SDS011;17046;52.074;4.748;2022-12-18T14:54:20;31.73;;;17.27;;
30233;SDS011;17046;52.074;4.748;2022-12-18T14:56:48;37.87;;;17.90;;
30233;SDS011;17046;52.074;4.748;2022-12-18T14:59:18;31.17;;;17.57;;
30233;SDS011;17046;52.074;4.748;2022-12-18T15:04:37;33.50;;;17.37;;
30233;SDS011;17046;52.074;4.748;2022-12-18T15:09:40;34.93;;;17.53;;
30233;SDS011;17046;52.074;4.748;2022-12-18T15:12:33;30.83;;;16.87;;
30233;SDS011;17046;52.074;4.748;2022-12-18T15:15:00;32.70;;;16.77;;
30233;SDS011;17046;52.074;4.748;2022-12-18T15:17:26;29.40;;;14.63;;
30233;SDS011;17046;52.074;4.748;2022-12-18T15:19:53;33.47;;;16.80;;
30233;SDS011;17046;52.074;4.748;2022-12-18T15:22:33;32.93;;;16.57;;
30233;SDS011;17046;52.074;4.748;2022-12-18T15:25:00;31.87;;;16.83;;
30233;SDS011;17046;52.074;4.748;2022-12-18T15:27:28;31.40;;;16.23;;
30233;SDS011;17046;52.074;4.748;2022-12-18T15:32:37;33.27;;;17.10;;
30233;SDS011;17046;52.074;4.748;2022-12-18T15:37:41;29.77;;;16.33;;
30233;SDS011;17046;52.074;4.748;2022-12-18T15:40:08;35.97;;;17.40;;
30233;SDS011;17046;52.074;4.748;2022-12-18T15:42:41;30.13;;;15.60;;
30233;SDS011;17046;52.074;4.748;2022-12-18T15:45:26;29.50;;;16.47;;
30233;SDS011;17046;52.074;4.748;2022-12-18T15:47:52;33.17;;;16.17;;
30233;SDS011;17046;52.074;4.748;2022-12-18T15:50:17;31.10;;;17.33;;
30233;SDS011;17046;52.074;4.748;2022-12-18T15:52:43;31.33;;;17.33;;
30233;SDS011;17046;52.074;4.748;2022-12-18T15:55:15;32.00;;;16.77;;
30233;SDS011;17046;52.074;4.748;2022-12-18T15:58:01;32.10;;;16.63;;
30233;SDS011;17046;52.074;4.748;2022-12-18T16:00:27;32.73;;;16.83;;
30233;SDS011;17046;52.074;4.748;2022-12-18T16:02:52;33.70;;;16.13;;
30233;SDS011;17046;52.074;4.748;2022-12-18T16:05:19;35.13;;;17.57;;
30233;SDS011;17046;52.074;4.748;2022-12-18T16:07:46;32.00;;;16.93;;
30233;SDS011;17046;52.074;4.748;2022-12-18T16:10:12;33.97;;;17.17;;
30233;SDS011;17046;52.074;4.748;2022-12-18T16:12:38;32.10;;;17.77;;
30233;SDS011;17046;52.074;4.748;2022-12-18T16:15:04;33.37;;;16.43;;
30233;SDS011;17046;52.074;4.748;2022-12-18T16:17:30;32.13;;;17.47;;
30233;SDS011;17046;52.074;4.748;2022-12-18T16:19:56;31.10;;;17.03;;
30233;SDS011;17046;52.074;4.748;2022-12-18T16:22:23;35.57;;;17.67;;
30233;SDS011;17046;52.074;4.748;2022-12-18T16:24:51;32.87;;;17.30;;
30233;SDS011;17046;52.074;4.748;2022-12-18T16:27:17;34.60;;;16.97;;